KSFO/SFO METAR and TAF weather

Enter ICAO airport designator
Station Type Date Time Source
KSFO METAR 2020/09/21 05:56 UTC NOAA

KSFO 210556Z 31010KT 10SM FEW006 16/14 A2988 RMK AO2 SLP118 T01610139 10250 20150 51011


Station Type Date Time Source
KSFO Decoded METAR 2020/09/21 05:56 UTC NOAA

SAN FRANCISCO INTERNATIONAL AIRPORT , CA, United States (KSFO) 37-37N 122-22W 26M
Sep 21, 2020 - 01:56 AM EDT / 2020.09.21 0556 UTC
Wind: from the NW (310 degrees) at 12 MPH (10 KT):0
Visibility: 10 mile(s):0
Sky conditions: mostly clear
Temperature: 61.0 F (16.1 C)
Dew Point: 57.0 F (13.9 C)
Relative Humidity: 86%
Pressure (altimeter): 29.88 in. Hg (1011 hPa)
Pressure tendency: 0.03 inches (1.1 hPa) higher than three hours ago
ob: KSFO 210556Z 31010KT 10SM FEW006 16/14 A2988 RMK AO2 SLP118 T01610139 10250 20150 51011
cycle: 6

Station Type Date Time Source
KSFO TAF 2020/09/21 06:40 UTC NOAA

TAF KSFO 210538Z 2106/2212 30010KT P6SM FEW006
FM211100 28006KT P6SM FEW006 BKN010
FM211700 27004KT P6SM FEW006 SCT012
FM212100 29016KT P6SM SKC
FM220400 30010KT P6SM SCT010
FM220600 30007KT P6SM BKN010

Example: see airport list